sensor_id;sensor_type;location;lat;lon;timestamp;P1;durP1;ratioP1;P2;durP2;ratioP2
38513;SDS011;24282;48.400;10.808;2022-11-27T00:01:36;24.33;;;16.13;;
38513;SDS011;24282;48.400;10.808;2022-11-27T00:04:04;20.80;;;14.90;;
38513;SDS011;24282;48.400;10.808;2022-11-27T00:06:31;21.63;;;15.73;;
38513;SDS011;24282;48.400;10.808;2022-11-27T00:08:57;18.67;;;14.33;;
38513;SDS011;24282;48.400;10.808;2022-11-27T00:11:25;16.40;;;12.47;;
38513;SDS011;24282;48.400;10.808;2022-11-27T00:13:52;13.37;;;10.90;;
38513;SDS011;24282;48.400;10.808;2022-11-27T00:16:18;11.77;;;10.50;;
38513;SDS011;24282;48.400;10.808;2022-11-27T00:18:45;11.70;;;10.00;;
38513;SDS011;24282;48.400;10.808;2022-11-27T00:21:13;11.97;;;10.20;;
38513;SDS011;24282;48.400;10.808;2022-11-27T00:23:41;13.83;;;11.03;;
38513;SDS011;24282;48.400;10.808;2022-11-27T00:26:08;17.90;;;13.60;;
38513;SDS011;24282;48.400;10.808;2022-11-27T00:28:34;17.80;;;14.47;;
38513;SDS011;24282;48.400;10.808;2022-11-27T00:31:02;15.27;;;12.53;;
38513;SDS011;24282;48.400;10.808;2022-11-27T00:33:30;16.83;;;13.53;;
38513;SDS011;24282;48.400;10.808;2022-11-27T00:36:00;16.17;;;12.93;;
38513;SDS011;24282;48.400;10.808;2022-11-27T00:38:26;13.73;;;11.97;;
38513;SDS011;24282;48.400;10.808;2022-11-27T00:40:52;14.23;;;12.00;;
38513;SDS011;24282;48.400;10.808;2022-11-27T00:43:18;16.23;;;12.47;;
38513;SDS011;24282;48.400;10.808;2022-11-27T00:45:47;14.73;;;11.97;;
38513;SDS011;24282;48.400;10.808;2022-11-27T00:48:13;11.97;;;9.83;;
38513;SDS011;24282;48.400;10.808;2022-11-27T00:50:39;11.00;;;9.23;;
38513;SDS011;24282;48.400;10.808;2022-11-27T00:53:04;10.93;;;9.37;;
38513;SDS011;24282;48.400;10.808;2022-11-27T00:55:30;13.20;;;10.73;;
38513;SDS011;24282;48.400;10.808;2022-11-27T00:57:56;18.80;;;13.23;;
38513;SDS011;24282;48.400;10.808;2022-11-27T01:00:21;16.03;;;13.70;;
38513;SDS011;24282;48.400;10.808;2022-11-27T01:02:47;19.23;;;13.57;;
38513;SDS011;24282;48.400;10.808;2022-11-27T01:05:13;16.83;;;13.87;;
38513;SDS011;24282;48.400;10.808;2022-11-27T01:07:39;15.73;;;12.77;;
38513;SDS011;24282;48.400;10.808;2022-11-27T01:10:05;15.87;;;13.80;;
38513;SDS011;24282;48.400;10.808;2022-11-27T01:12:31;17.13;;;12.97;;
38513;SDS011;24282;48.400;10.808;2022-11-27T01:14:57;19.10;;;14.67;;
38513;SDS011;24282;48.400;10.808;2022-11-27T01:17:22;18.10;;;14.57;;
38513;SDS011;24282;48.400;10.808;2022-11-27T01:19:48;15.50;;;12.90;;
38513;SDS011;24282;48.400;10.808;2022-11-27T01:22:14;15.13;;;12.30;;
38513;SDS011;24282;48.400;10.808;2022-11-27T01:24:39;13.47;;;12.07;;
38513;SDS011;24282;48.400;10.808;2022-11-27T01:27:05;16.50;;;12.87;;
38513;SDS011;24282;48.400;10.808;2022-11-27T01:29:31;14.83;;;12.90;;
38513;SDS011;24282;48.400;10.808;2022-11-27T01:31:56;14.70;;;11.77;;
38513;SDS011;24282;48.400;10.808;2022-11-27T01:34:22;12.17;;;10.67;;
38513;SDS011;24282;48.400;10.808;2022-11-27T01:36:48;15.47;;;12.43;;
38513;SDS011;24282;48.400;10.808;2022-11-27T01:39:15;14.27;;;12.17;;
38513;SDS011;24282;48.400;10.808;2022-11-27T01:41:42;14.27;;;12.23;;
38513;SDS011;24282;48.400;10.808;2022-11-27T01:49:25;11.93;;;10.07;;
38513;SDS011;24282;48.400;10.808;2022-11-27T01:52:12;12.33;;;10.67;;
38513;SDS011;24282;48.400;10.808;2022-11-27T01:57:20;10.73;;;9.37;;
38513;SDS011;24282;48.400;10.808;2022-11-27T01:59:49;10.30;;;8.85;;
38513;SDS011;24282;48.400;10.808;2022-11-27T02:02:16;11.43;;;8.93;;
38513;SDS011;24282;48.400;10.808;2022-11-27T02:04:42;10.13;;;8.23;;
38513;SDS011;24282;48.400;10.808;2022-11-27T02:07:07;10.63;;;8.87;;
38513;SDS011;24282;48.400;10.808;2022-11-27T02:09:33;9.67;;;8.50;;
38513;SDS011;24282;48.400;10.808;2022-11-27T02:25:50;9.97;;;8.30;;
38513;SDS011;24282;48.400;10.808;2022-11-27T02:31:42;8.27;;;7.33;;
38513;SDS011;24282;48.400;10.808;2022-11-27T02:36:49;8.67;;;7.30;;
38513;SDS011;24282;48.400;10.808;2022-11-27T02:39:24;9.47;;;7.77;;
38513;SDS011;24282;48.400;10.808;2022-11-27T02:42:03;8.03;;;6.97;;
38513;SDS011;24282;48.400;10.808;2022-11-27T02:44:34;8.67;;;7.10;;
38513;SDS011;24282;48.400;10.808;2022-11-27T02:47:04;8.40;;;7.37;;
38513;SDS011;24282;48.400;10.808;2022-11-27T02:49:31;8.73;;;7.63;;
38513;SDS011;24282;48.400;10.808;2022-11-27T02:51:59;8.83;;;7.30;;
38513;SDS011;24282;48.400;10.808;2022-11-27T02:54:28;8.83;;;7.90;;
38513;SDS011;24282;48.400;10.808;2022-11-27T02:56:55;7.93;;;7.13;;
38513;SDS011;24282;48.400;10.808;2022-11-27T02:59:23;8.37;;;7.27;;
38513;SDS011;24282;48.400;10.808;2022-11-27T03:01:54;9.53;;;7.93;;
38513;SDS011;24282;48.400;10.808;2022-11-27T03:04:26;13.73;;;8.52;;
38513;SDS011;24282;48.400;10.808;2022-11-27T03:09:38;10.03;;;7.13;;
38513;SDS011;24282;48.400;10.808;2022-11-27T03:12:07;8.73;;;7.37;;
38513;SDS011;24282;48.400;10.808;2022-11-27T03:14:35;9.23;;;7.63;;
38513;SDS011;24282;48.400;10.808;2022-11-27T03:20:12;8.47;;;7.33;;
38513;SDS011;24282;48.400;10.808;2022-11-27T03:22:43;8.00;;;7.20;;
38513;SDS011;24282;48.400;10.808;2022-11-27T03:25:09;9.03;;;8.13;;
38513;SDS011;24282;48.400;10.808;2022-11-27T03:27:37;8.40;;;7.60;;
38513;SDS011;24282;48.400;10.808;2022-11-27T03:30:08;8.60;;;7.20;;
38513;SDS011;24282;48.400;10.808;2022-11-27T03:32:34;7.90;;;7.10;;
38513;SDS011;24282;48.400;10.808;2022-11-27T03:35:00;8.00;;;7.00;;
38513;SDS011;24282;48.400;10.808;2022-11-27T03:37:27;7.03;;;6.33;;
38513;SDS011;24282;48.400;10.808;2022-11-27T03:39:53;7.67;;;6.87;;
38513;SDS011;24282;48.400;10.808;2022-11-27T03:45:04;8.90;;;7.47;;
38513;SDS011;24282;48.400;10.808;2022-11-27T04:00:55;8.27;;;6.87;;
38513;SDS011;24282;48.400;10.808;2022-11-27T04:03:24;5.87;;;5.20;;
38513;SDS011;24282;48.400;10.808;2022-11-27T04:05:52;5.97;;;5.33;;
38513;SDS011;24282;48.400;10.808;2022-11-27T04:08:21;7.83;;;5.27;;
38513;SDS011;24282;48.400;10.808;2022-11-27T04:10:47;5.30;;;4.67;;
38513;SDS011;24282;48.400;10.808;2022-11-27T04:13:13;5.53;;;4.67;;
38513;SDS011;24282;48.400;10.808;2022-11-27T04:15:39;8.07;;;5.47;;
38513;SDS011;24282;48.400;10.808;2022-11-27T04:18:05;5.90;;;5.10;;
38513;SDS011;24282;48.400;10.808;2022-11-27T04:20:31;5.77;;;4.97;;
38513;SDS011;24282;48.400;10.808;2022-11-27T04:22:57;6.10;;;5.33;;
38513;SDS011;24282;48.400;10.808;2022-11-27T04:25:23;5.43;;;4.90;;
38513;SDS011;24282;48.400;10.808;2022-11-27T04:27:49;5.70;;;4.87;;
38513;SDS011;24282;48.400;10.808;2022-11-27T04:30:15;5.20;;;4.60;;
38513;SDS011;24282;48.400;10.808;2022-11-27T04:32:41;5.53;;;4.93;;
38513;SDS011;24282;48.400;10.808;2022-11-27T04:35:07;6.13;;;4.73;;
38513;SDS011;24282;48.400;10.808;2022-11-27T04:37:33;5.70;;;4.83;;
38513;SDS011;24282;48.400;10.808;2022-11-27T04:39:59;5.67;;;5.07;;
38513;SDS011;24282;48.400;10.808;2022-11-27T04:42:25;4.57;;;4.10;;
38513;SDS011;24282;48.400;10.808;2022-11-27T04:44:51;5.27;;;4.47;;
38513;SDS011;24282;48.400;10.808;2022-11-27T04:47:16;5.57;;;4.60;;
38513;SDS011;24282;48.400;10.808;2022-11-27T04:49:42;5.77;;;5.03;;
38513;SDS011;24282;48.400;10.808;2022-11-27T04:52:08;5.40;;;4.33;;
38513;SDS011;24282;48.400;10.808;2022-11-27T04:54:35;5.10;;;4.27;;
38513;SDS011;24282;48.400;10.808;2022-11-27T04:57:01;4.90;;;3.83;;
38513;SDS011;24282;48.400;10.808;2022-11-27T04:59:27;5.53;;;4.53;;
38513;SDS011;24282;48.400;10.808;2022-11-27T05:01:56;5.33;;;4.57;;
38513;SDS011;24282;48.400;10.808;2022-11-27T05:04:22;5.30;;;4.33;;
38513;SDS011;24282;48.400;10.808;2022-11-27T05:06:48;5.17;;;4.40;;
38513;SDS011;24282;48.400;10.808;2022-11-27T05:09:15;5.57;;;4.70;;
38513;SDS011;24282;48.400;10.808;2022-11-27T05:11:42;5.77;;;5.00;;
38513;SDS011;24282;48.400;10.808;2022-11-27T05:14:08;5.50;;;4.83;;
38513;SDS011;24282;48.400;10.808;2022-11-27T05:16:41;5.93;;;4.63;;
38513;SDS011;24282;48.400;10.808;2022-11-27T05:19:10;6.20;;;5.47;;
38513;SDS011;24282;48.400;10.808;2022-11-27T05:21:38;5.60;;;4.70;;
38513;SDS011;24282;48.400;10.808;2022-11-27T05:24:04;6.00;;;5.27;;
38513;SDS011;24282;48.400;10.808;2022-11-27T05:26:30;6.63;;;5.60;;
38513;SDS011;24282;48.400;10.808;2022-11-27T05:28:56;6.10;;;4.90;;
38513;SDS011;24282;48.400;10.808;2022-11-27T05:31:22;6.17;;;5.17;;
38513;SDS011;24282;48.400;10.808;2022-11-27T05:33:48;6.67;;;5.30;;
38513;SDS011;24282;48.400;10.808;2022-11-27T05:36:14;5.83;;;4.77;;
38513;SDS011;24282;48.400;10.808;2022-11-27T05:38:39;6.53;;;5.43;;
38513;SDS011;24282;48.400;10.808;2022-11-27T05:41:05;5.77;;;5.17;;
38513;SDS011;24282;48.400;10.808;2022-11-27T05:43:31;7.70;;;5.87;;
38513;SDS011;24282;48.400;10.808;2022-11-27T05:45:57;6.10;;;4.93;;
38513;SDS011;24282;48.400;10.808;2022-11-27T05:48:23;6.27;;;5.33;;
38513;SDS011;24282;48.400;10.808;2022-11-27T05:50:49;6.07;;;5.00;;
38513;SDS011;24282;48.400;10.808;2022-11-27T05:53:15;8.13;;;5.67;;
38513;SDS011;24282;48.400;10.808;2022-11-27T05:55:40;6.77;;;5.73;;
38513;SDS011;24282;48.400;10.808;2022-11-27T05:58:06;6.33;;;5.40;;
38513;SDS011;24282;48.400;10.808;2022-11-27T06:00:32;6.07;;;4.83;;
38513;SDS011;24282;48.400;10.808;2022-11-27T06:02:57;7.43;;;5.27;;
38513;SDS011;24282;48.400;10.808;2022-11-27T06:05:23;6.30;;;5.20;;
38513;SDS011;24282;48.400;10.808;2022-11-27T06:07:49;7.50;;;5.00;;
38513;SDS011;24282;48.400;10.808;2022-11-27T06:10:14;5.60;;;4.60;;
38513;SDS011;24282;48.400;10.808;2022-11-27T06:12:40;5.33;;;4.47;;
38513;SDS011;24282;48.400;10.808;2022-11-27T06:15:06;5.57;;;4.80;;
38513;SDS011;24282;48.400;10.808;2022-11-27T06:17:32;6.10;;;5.40;;
38513;SDS011;24282;48.400;10.808;2022-11-27T06:19:58;5.87;;;5.00;;
38513;SDS011;24282;48.400;10.808;2022-11-27T06:22:23;6.90;;;5.17;;
38513;SDS011;24282;48.400;10.808;2022-11-27T06:24:49;6.23;;;5.23;;
38513;SDS011;24282;48.400;10.808;2022-11-27T06:27:15;5.67;;;4.77;;
38513;SDS011;24282;48.400;10.808;2022-11-27T06:29:40;4.93;;;4.37;;
38513;SDS011;24282;48.400;10.808;2022-11-27T06:32:06;6.30;;;5.17;;
38513;SDS011;24282;48.400;10.808;2022-11-27T06:34:32;6.27;;;5.33;;
38513;SDS011;24282;48.400;10.808;2022-11-27T06:36:57;6.53;;;5.10;;
38513;SDS011;24282;48.400;10.808;2022-11-27T06:39:23;5.63;;;4.90;;
38513;SDS011;24282;48.400;10.808;2022-11-27T06:41:49;5.77;;;5.10;;
38513;SDS011;24282;48.400;10.808;2022-11-27T06:44:15;5.90;;;4.73;;
38513;SDS011;24282;48.400;10.808;2022-11-27T06:46:40;7.20;;;5.77;;
38513;SDS011;24282;48.400;10.808;2022-11-27T06:49:06;5.70;;;4.57;;
38513;SDS011;24282;48.400;10.808;2022-11-27T06:51:33;6.57;;;5.60;;
38513;SDS011;24282;48.400;10.808;2022-11-27T06:53:59;7.83;;;5.90;;
38513;SDS011;24282;48.400;10.808;2022-11-27T06:56:27;9.70;;;6.03;;
38513;SDS011;24282;48.400;10.808;2022-11-27T06:58:55;6.63;;;5.30;;
38513;SDS011;24282;48.400;10.808;2022-11-27T07:01:22;5.57;;;4.93;;
38513;SDS011;24282;48.400;10.808;2022-11-27T07:03:49;6.00;;;5.17;;
38513;SDS011;24282;48.400;10.808;2022-11-27T07:06:17;6.53;;;5.23;;
38513;SDS011;24282;48.400;10.808;2022-11-27T07:08:44;6.00;;;4.77;;
38513;SDS011;24282;48.400;10.808;2022-11-27T07:11:20;5.87;;;4.07;;
38513;SDS011;24282;48.400;10.808;2022-11-27T07:13:48;5.53;;;4.63;;
38513;SDS011;24282;48.400;10.808;2022-11-27T07:16:15;6.00;;;4.43;;
38513;SDS011;24282;48.400;10.808;2022-11-27T07:18:43;6.13;;;5.10;;
38513;SDS011;24282;48.400;10.808;2022-11-27T07:21:10;6.23;;;4.73;;
38513;SDS011;24282;48.400;10.808;2022-11-27T07:23:36;4.97;;;4.10;;
38513;SDS011;24282;48.400;10.808;2022-11-27T07:26:07;6.03;;;5.10;;
38513;SDS011;24282;48.400;10.808;2022-11-27T07:28:34;5.93;;;4.93;;
38513;SDS011;24282;48.400;10.808;2022-11-27T07:31:00;6.37;;;5.30;;
38513;SDS011;24282;48.400;10.808;2022-11-27T07:33:26;6.37;;;5.57;;
38513;SDS011;24282;48.400;10.808;2022-11-27T07:36:09;6.87;;;5.57;;
38513;SDS011;24282;48.400;10.808;2022-11-27T07:38:40;5.87;;;5.20;;
38513;SDS011;24282;48.400;10.808;2022-11-27T07:41:07;6.90;;;5.40;;
38513;SDS011;24282;48.400;10.808;2022-11-27T07:43:33;6.07;;;4.97;;
38513;SDS011;24282;48.400;10.808;2022-11-27T07:46:07;6.93;;;5.97;;
38513;SDS011;24282;48.400;10.808;2022-11-27T07:48:38;6.97;;;5.90;;
38513;SDS011;24282;48.400;10.808;2022-11-27T07:51:07;7.23;;;5.53;;
38513;SDS011;24282;48.400;10.808;2022-11-27T07:53:35;7.00;;;5.90;;
38513;SDS011;24282;48.400;10.808;2022-11-27T07:56:02;8.90;;;8.00;;
38513;SDS011;24282;48.400;10.808;2022-11-27T07:58:29;8.20;;;6.73;;
38513;SDS011;24282;48.400;10.808;2022-11-27T08:00:55;10.00;;;6.83;;
38513;SDS011;24282;48.400;10.808;2022-11-27T08:03:21;9.10;;;7.37;;
38513;SDS011;24282;48.400;10.808;2022-11-27T08:05:47;7.73;;;6.40;;
38513;SDS011;24282;48.400;10.808;2022-11-27T08:08:13;7.37;;;5.87;;
38513;SDS011;24282;48.400;10.808;2022-11-27T08:10:38;7.83;;;6.53;;
38513;SDS011;24282;48.400;10.808;2022-11-27T08:13:04;8.53;;;7.07;;
38513;SDS011;24282;48.400;10.808;2022-11-27T08:15:31;8.03;;;6.77;;
38513;SDS011;24282;48.400;10.808;2022-11-27T08:17:57;9.00;;;7.13;;
38513;SDS011;24282;48.400;10.808;2022-11-27T08:20:23;10.20;;;5.87;;
38513;SDS011;24282;48.400;10.808;2022-11-27T08:22:49;7.50;;;5.87;;
38513;SDS011;24282;48.400;10.808;2022-11-27T08:25:15;9.63;;;6.93;;
38513;SDS011;24282;48.400;10.808;2022-11-27T08:27:41;8.50;;;7.03;;
38513;SDS011;24282;48.400;10.808;2022-11-27T08:30:07;7.77;;;6.30;;
38513;SDS011;24282;48.400;10.808;2022-11-27T08:32:37;8.93;;;6.80;;
38513;SDS011;24282;48.400;10.808;2022-11-27T08:35:04;7.23;;;6.10;;
38513;SDS011;24282;48.400;10.808;2022-11-27T08:37:30;8.27;;;6.20;;
38513;SDS011;24282;48.400;10.808;2022-11-27T08:39:55;9.60;;;7.40;;
38513;SDS011;24282;48.400;10.808;2022-11-27T08:42:21;7.20;;;6.20;;
38513;SDS011;24282;48.400;10.808;2022-11-27T08:44:47;8.47;;;6.13;;
38513;SDS011;24282;48.400;10.808;2022-11-27T08:47:13;11.10;;;7.47;;
38513;SDS011;24282;48.400;10.808;2022-11-27T08:49:41;7.07;;;6.20;;
38513;SDS011;24282;48.400;10.808;2022-11-27T08:52:07;7.90;;;6.47;;
38513;SDS011;24282;48.400;10.808;2022-11-27T08:54:33;7.20;;;5.90;;
38513;SDS011;24282;48.400;10.808;2022-11-27T08:56:59;9.33;;;6.93;;
38513;SDS011;24282;48.400;10.808;2022-11-27T08:59:25;8.60;;;6.93;;
38513;SDS011;24282;48.400;10.808;2022-11-27T09:01:51;8.83;;;7.53;;
38513;SDS011;24282;48.400;10.808;2022-11-27T09:04:16;9.17;;;7.67;;
38513;SDS011;24282;48.400;10.808;2022-11-27T09:06:42;7.37;;;6.17;;
38513;SDS011;24282;48.400;10.808;2022-11-27T09:09:08;8.40;;;6.70;;
38513;SDS011;24282;48.400;10.808;2022-11-27T09:11:34;8.30;;;6.03;;
38513;SDS011;24282;48.400;10.808;2022-11-27T09:14:01;9.23;;;7.47;;
38513;SDS011;24282;48.400;10.808;2022-11-27T09:16:28;10.40;;;8.57;;
38513;SDS011;24282;48.400;10.808;2022-11-27T09:18:55;9.07;;;7.40;;
38513;SDS011;24282;48.400;10.808;2022-11-27T09:21:22;9.90;;;7.37;;
38513;SDS011;24282;48.400;10.808;2022-11-27T09:23:54;11.00;;;8.20;;
38513;SDS011;24282;48.400;10.808;2022-11-27T09:26:21;9.40;;;7.70;;
38513;SDS011;24282;48.400;10.808;2022-11-27T09:28:48;9.37;;;7.93;;
38513;SDS011;24282;48.400;10.808;2022-11-27T09:31:14;9.90;;;8.20;;
38513;SDS011;24282;48.400;10.808;2022-11-27T09:33:40;8.90;;;7.10;;
38513;SDS011;24282;48.400;10.808;2022-11-27T09:38:37;9.63;;;7.73;;
38513;SDS011;24282;48.400;10.808;2022-11-27T09:41:26;10.43;;;7.50;;
38513;SDS011;24282;48.400;10.808;2022-11-27T09:46:42;9.33;;;7.50;;
38513;SDS011;24282;48.400;10.808;2022-11-27T09:49:13;8.87;;;7.50;;
38513;SDS011;24282;48.400;10.808;2022-11-27T09:51:52;8.73;;;6.97;;
38513;SDS011;24282;48.400;10.808;2022-11-27T09:54:24;10.93;;;8.77;;
38513;SDS011;24282;48.400;10.808;2022-11-27T09:56:58;11.60;;;9.27;;
38513;SDS011;24282;48.400;10.808;2022-11-27T09:59:28;13.37;;;10.50;;
38513;SDS011;24282;48.400;10.808;2022-11-27T10:02:16;17.13;;;11.90;;
38513;SDS011;24282;48.400;10.808;2022-11-27T10:04:47;16.03;;;11.10;;
38513;SDS011;24282;48.400;10.808;2022-11-27T10:07:32;14.87;;;11.27;;
38513;SDS011;24282;48.400;10.808;2022-11-27T10:11:05;11.43;;;9.07;;
38513;SDS011;24282;48.400;10.808;2022-11-27T10:13:38;11.43;;;8.68;;
38513;SDS011;24282;48.400;10.808;2022-11-27T10:16:46;13.47;;;10.83;;
38513;SDS011;24282;48.400;10.808;2022-11-27T10:19:31;14.73;;;11.97;;
38513;SDS011;24282;48.400;10.808;2022-11-27T10:30:41;13.40;;;11.70;;
38513;SDS011;24282;48.400;10.808;2022-11-27T10:33:16;11.27;;;9.93;;
38513;SDS011;24282;48.400;10.808;2022-11-27T10:35:46;14.43;;;10.30;;
38513;SDS011;24282;48.400;10.808;2022-11-27T10:38:16;12.23;;;10.20;;
38513;SDS011;24282;48.400;10.808;2022-11-27T10:43:44;13.70;;;11.63;;
38513;SDS011;24282;48.400;10.808;2022-11-27T10:46:19;15.07;;;11.63;;
38513;SDS011;24282;48.400;10.808;2022-11-27T10:48:49;12.53;;;10.77;;
38513;SDS011;24282;48.400;10.808;2022-11-27T10:51:16;11.70;;;9.97;;
38513;SDS011;24282;48.400;10.808;2022-11-27T10:53:45;12.60;;;10.33;;
38513;SDS011;24282;48.400;10.808;2022-11-27T10:58:50;10.80;;;9.53;;
38513;SDS011;24282;48.400;10.808;2022-11-27T11:01:25;10.30;;;8.80;;
38513;SDS011;24282;48.400;10.808;2022-11-27T11:04:09;11.67;;;9.80;;
38513;SDS011;24282;48.400;10.808;2022-11-27T11:06:41;10.40;;;9.30;;
38513;SDS011;24282;48.400;10.808;2022-11-27T11:14:51;12.20;;;10.33;;
38513;SDS011;24282;48.400;10.808;2022-11-27T11:17:24;11.27;;;9.83;;
38513;SDS011;24282;48.400;10.808;2022-11-27T11:19:51;10.57;;;9.17;;
38513;SDS011;24282;48.400;10.808;2022-11-27T11:22:17;10.77;;;8.57;;
38513;SDS011;24282;48.400;10.808;2022-11-27T11:24:47;11.00;;;9.13;;
38513;SDS011;24282;48.400;10.808;2022-11-27T11:27:28;10.73;;;9.63;;
38513;SDS011;24282;48.400;10.808;2022-11-27T11:29:59;11.77;;;9.60;;
38513;SDS011;24282;48.400;10.808;2022-11-27T11:32:30;10.00;;;8.67;;
38513;SDS011;24282;48.400;10.808;2022-11-27T11:35:00;11.43;;;9.90;;
38513;SDS011;24282;48.400;10.808;2022-11-27T11:37:35;11.63;;;9.63;;
38513;SDS011;24282;48.400;10.808;2022-11-27T11:42:31;12.53;;;9.23;;
38513;SDS011;24282;48.400;10.808;2022-11-27T11:47:50;13.33;;;10.47;;
38513;SDS011;24282;48.400;10.808;2022-11-27T11:50:29;11.60;;;9.53;;
38513;SDS011;24282;48.400;10.808;2022-11-27T11:55:34;11.70;;;9.53;;
38513;SDS011;24282;48.400;10.808;2022-11-27T12:28:46;13.23;;;11.23;;
38513;SDS011;24282;48.400;10.808;2022-11-27T12:34:05;14.17;;;11.67;;
38513;SDS011;24282;48.400;10.808;2022-11-27T12:36:49;12.97;;;10.87;;
38513;SDS011;24282;48.400;10.808;2022-11-27T12:45:25;11.70;;;10.00;;
38513;SDS011;24282;48.400;10.808;2022-11-27T12:47:56;15.23;;;11.57;;
38513;SDS011;24282;48.400;10.808;2022-11-27T12:50:41;15.67;;;12.37;;
38513;SDS011;24282;48.400;10.808;2022-11-27T12:58:41;9.60;;;8.17;;
38513;SDS011;24282;48.400;10.808;2022-11-27T13:01:34;6.70;;;6.03;;
38513;SDS011;24282;48.400;10.808;2022-11-27T13:06:55;9.60;;;7.80;;
38513;SDS011;24282;48.400;10.808;2022-11-27T13:09:34;10.30;;;8.27;;
38513;SDS011;24282;48.400;10.808;2022-11-27T13:12:06;10.50;;;8.73;;
38513;SDS011;24282;48.400;10.808;2022-11-27T13:14:34;10.80;;;8.83;;
38513;SDS011;24282;48.400;10.808;2022-11-27T13:17:03;11.63;;;8.67;;
38513;SDS011;24282;48.400;10.808;2022-11-27T13:19:41;9.60;;;7.67;;
38513;SDS011;24282;48.400;10.808;2022-11-27T13:22:17;11.23;;;8.43;;
38513;SDS011;24282;48.400;10.808;2022-11-27T13:24:51;10.87;;;8.30;;
38513;SDS011;24282;48.400;10.808;2022-11-27T13:27:20;9.33;;;7.70;;
38513;SDS011;24282;48.400;10.808;2022-11-27T13:29:56;10.67;;;8.43;;
38513;SDS011;24282;48.400;10.808;2022-11-27T13:32:30;10.70;;;9.03;;
38513;SDS011;24282;48.400;10.808;2022-11-27T13:35:04;10.50;;;9.17;;
38513;SDS011;24282;48.400;10.808;2022-11-27T13:37:42;11.07;;;8.43;;
38513;SDS011;24282;48.400;10.808;2022-11-27T13:40:17;9.07;;;7.47;;
38513;SDS011;24282;48.400;10.808;2022-11-27T13:42:48;11.17;;;8.33;;
38513;SDS011;24282;48.400;10.808;2022-11-27T13:45:24;9.47;;;7.77;;
38513;SDS011;24282;48.400;10.808;2022-11-27T13:47:52;9.50;;;7.90;;
38513;SDS011;24282;48.400;10.808;2022-11-27T13:50:21;10.87;;;9.27;;
38513;SDS011;24282;48.400;10.808;2022-11-27T13:52:49;11.17;;;9.03;;
38513;SDS011;24282;48.400;10.808;2022-11-27T13:55:22;10.50;;;8.52;;
38513;SDS011;24282;48.400;10.808;2022-11-27T13:57:51;12.80;;;10.43;;
38513;SDS011;24282;48.400;10.808;2022-11-27T14:00:18;10.13;;;9.00;;
38513;SDS011;24282;48.400;10.808;2022-11-27T14:02:58;13.07;;;10.33;;
38513;SDS011;24282;48.400;10.808;2022-11-27T14:05:38;12.63;;;9.67;;
38513;SDS011;24282;48.400;10.808;2022-11-27T14:10:56;11.40;;;8.33;;
38513;SDS011;24282;48.400;10.808;2022-11-27T14:16:29;10.10;;;8.77;;
38513;SDS011;24282;48.400;10.808;2022-11-27T14:18:58;9.30;;;7.77;;
38513;SDS011;24282;48.400;10.808;2022-11-27T14:24:19;9.20;;;7.50;;
38513;SDS011;24282;48.400;10.808;2022-11-27T14:26:48;8.63;;;7.27;;
38513;SDS011;24282;48.400;10.808;2022-11-27T14:29:14;12.90;;;9.93;;
38513;SDS011;24282;48.400;10.808;2022-11-27T14:31:41;9.70;;;7.77;;
38513;SDS011;24282;48.400;10.808;2022-11-27T14:37:45;9.07;;;7.63;;
38513;SDS011;24282;48.400;10.808;2022-11-27T14:40:11;9.57;;;7.40;;
38513;SDS011;24282;48.400;10.808;2022-11-27T14:42:49;7.90;;;6.40;;
38513;SDS011;24282;48.400;10.808;2022-11-27T14:45:16;8.50;;;7.03;;
38513;SDS011;24282;48.400;10.808;2022-11-27T14:47:48;8.23;;;7.07;;
38513;SDS011;24282;48.400;10.808;2022-11-27T14:50:16;8.50;;;7.60;;
38513;SDS011;24282;48.400;10.808;2022-11-27T14:52:43;9.97;;;8.03;;
38513;SDS011;24282;48.400;10.808;2022-11-27T14:55:14;10.13;;;7.73;;
38513;SDS011;24282;48.400;10.808;2022-11-27T14:57:41;11.10;;;9.17;;
38513;SDS011;24282;48.400;10.808;2022-11-27T15:00:15;9.00;;;7.93;;
38513;SDS011;24282;48.400;10.808;2022-11-27T15:02:48;7.97;;;7.07;;
38513;SDS011;24282;48.400;10.808;2022-11-27T15:07:46;9.00;;;7.77;;
38513;SDS011;24282;48.400;10.808;2022-11-27T15:10:19;9.20;;;8.30;;
38513;SDS011;24282;48.400;10.808;2022-11-27T15:12:51;8.53;;;6.90;;
38513;SDS011;24282;48.400;10.808;2022-11-27T15:15:19;7.77;;;6.60;;
38513;SDS011;24282;48.400;10.808;2022-11-27T15:17:48;9.03;;;7.70;;
38513;SDS011;24282;48.400;10.808;2022-11-27T15:20:33;9.47;;;7.80;;
38513;SDS011;24282;48.400;10.808;2022-11-27T15:23:00;9.47;;;7.80;;
38513;SDS011;24282;48.400;10.808;2022-11-27T15:25:28;8.53;;;7.53;;
38513;SDS011;24282;48.400;10.808;2022-11-27T15:30:52;10.03;;;8.10;;
38513;SDS011;24282;48.400;10.808;2022-11-27T15:36:13;9.47;;;7.90;;
38513;SDS011;24282;48.400;10.808;2022-11-27T15:38:41;11.00;;;9.17;;
38513;SDS011;24282;48.400;10.808;2022-11-27T15:41:26;10.30;;;7.80;;
38513;SDS011;24282;48.400;10.808;2022-11-27T15:43:54;8.50;;;7.60;;
38513;SDS011;24282;48.400;10.808;2022-11-27T15:46:27;8.87;;;7.27;;
38513;SDS011;24282;48.400;10.808;2022-11-27T15:48:56;8.93;;;7.53;;
38513;SDS011;24282;48.400;10.808;2022-11-27T15:51:22;9.93;;;8.03;;
38513;SDS011;24282;48.400;10.808;2022-11-27T15:53:48;12.20;;;10.27;;
38513;SDS011;24282;48.400;10.808;2022-11-27T15:56:14;9.57;;;8.47;;
38513;SDS011;24282;48.400;10.808;2022-11-27T15:58:41;10.67;;;9.57;;
38513;SDS011;24282;48.400;10.808;2022-11-27T16:01:08;9.77;;;8.40;;
38513;SDS011;24282;48.400;10.808;2022-11-27T16:03:34;10.77;;;8.20;;
38513;SDS011;24282;48.400;10.808;2022-11-27T16:06:04;9.20;;;8.20;;
38513;SDS011;24282;48.400;10.808;2022-11-27T16:08:31;8.83;;;7.93;;
38513;SDS011;24282;48.400;10.808;2022-11-27T16:11:00;9.80;;;8.43;;
38513;SDS011;24282;48.400;10.808;2022-11-27T16:13:28;8.40;;;7.30;;
38513;SDS011;24282;48.400;10.808;2022-11-27T16:15:55;10.23;;;8.13;;
38513;SDS011;24282;48.400;10.808;2022-11-27T16:18:26;10.35;;;8.70;;
38513;SDS011;24282;48.400;10.808;2022-11-27T16:20:52;11.53;;;8.87;;
38513;SDS011;24282;48.400;10.808;2022-11-27T16:23:18;11.47;;;9.07;;
38513;SDS011;24282;48.400;10.808;2022-11-27T16:25:44;12.23;;;10.20;;
38513;SDS011;24282;48.400;10.808;2022-11-27T16:28:09;12.50;;;10.07;;
38513;SDS011;24282;48.400;10.808;2022-11-27T16:30:35;10.67;;;8.93;;
38513;SDS011;24282;48.400;10.808;2022-11-27T16:33:01;10.60;;;9.10;;
38513;SDS011;24282;48.400;10.808;2022-11-27T16:35:27;11.13;;;9.43;;
38513;SDS011;24282;48.400;10.808;2022-11-27T16:37:53;11.67;;;9.63;;
38513;SDS011;24282;48.400;10.808;2022-11-27T16:40:19;12.43;;;9.80;;
38513;SDS011;24282;48.400;10.808;2022-11-27T16:42:45;16.37;;;11.37;;
38513;SDS011;24282;48.400;10.808;2022-11-27T16:45:11;16.13;;;12.03;;
38513;SDS011;24282;48.400;10.808;2022-11-27T16:47:37;13.33;;;11.50;;
38513;SDS011;24282;48.400;10.808;2022-11-27T16:50:02;16.37;;;12.83;;
38513;SDS011;24282;48.400;10.808;2022-11-27T16:52:31;13.10;;;11.03;;
38513;SDS011;24282;48.400;10.808;2022-11-27T16:54:56;12.87;;;10.67;;
38513;SDS011;24282;48.400;10.808;2022-11-27T16:57:22;13.87;;;11.40;;
38513;SDS011;24282;48.400;10.808;2022-11-27T16:59:48;14.03;;;10.70;;
38513;SDS011;24282;48.400;10.808;2022-11-27T17:02:15;17.93;;;13.10;;
38513;SDS011;24282;48.400;10.808;2022-11-27T17:04:41;25.27;;;18.67;;
38513;SDS011;24282;48.400;10.808;2022-11-27T17:07:06;14.70;;;12.30;;